createdAt,value
2022-10-19T00:00:58.534Z,17.71
2022-10-19T00:02:00.416Z,18.21
2022-10-19T00:03:02.284Z,17.91
2022-10-19T00:04:07.852Z,16.66
2022-10-19T00:05:07.791Z,16.04
2022-10-19T00:06:10.499Z,16.51
2022-10-19T00:07:12.301Z,16.91
2022-10-19T00:08:14.084Z,15.13
2022-10-19T00:09:15.886Z,15.67
2022-10-19T00:10:18.457Z,17.57
2022-10-19T00:11:20.257Z,15.61
2022-10-19T00:12:22.042Z,14.92
2022-10-19T00:13:23.841Z,15.18
2022-10-19T00:14:25.653Z,17.43
2022-10-19T00:15:27.483Z,18.35
2022-10-19T00:16:29.278Z,16.12
2022-10-19T00:18:52.175Z,18.34
2022-10-19T00:19:53.986Z,15.29
2022-10-19T00:20:55.822Z,16.49
2022-10-19T00:21:57.611Z,16.01
2022-10-19T00:22:59.414Z,15.53
2022-10-19T00:24:01.210Z,15.33
2022-10-19T00:25:03.018Z,18.91
2022-10-19T00:26:04.852Z,16.29
2022-10-19T00:27:06.651Z,15.47
2022-10-19T00:28:08.452Z,16.29
2022-10-19T00:29:10.284Z,18.59
2022-10-19T00:30:12.970Z,17.62
2022-10-19T00:31:14.816Z,17.34
2022-10-19T00:32:16.632Z,16.29
2022-10-19T00:33:18.333Z,20.41
2022-10-19T00:34:20.135Z,17.25
2022-10-19T00:35:21.945Z,18.41
2022-10-19T00:36:23.781Z,19.25
2022-10-19T00:37:25.579Z,17.86
2022-10-19T00:38:27.387Z,16.18
2022-10-19T00:39:29.187Z,17.45
2022-10-19T00:40:30.884Z,19.69
2022-10-19T00:41:32.729Z,21.29
2022-10-19T00:42:34.757Z,17.91
2022-10-19T00:43:36.751Z,18.33
2022-10-19T00:44:38.549Z,20.65
2022-10-19T00:45:40.350Z,20.37
2022-10-19T00:46:42.285Z,19.91
2022-10-19T00:47:44.150Z,16.57
2022-10-19T00:48:46.031Z,20.12
2022-10-19T00:49:47.866Z,20.17
2022-10-19T00:50:49.657Z,20.15
2022-10-19T00:51:51.408Z,21.99
2022-10-19T00:52:53.107Z,21.64
2022-10-19T00:53:54.914Z,19.19
2022-10-19T00:54:56.702Z,21.89
2022-10-19T00:55:58.517Z,19.96
2022-10-19T00:57:00.349Z,21.65
2022-10-19T00:58:02.187Z,23.06
2022-10-19T00:59:03.980Z,22.90
2022-10-19T01:00:05.897Z,22.05
2022-10-19T01:01:07.765Z,19.88
2022-10-19T01:02:09.638Z,23.25
2022-10-19T01:03:11.522Z,23.61
2022-10-19T01:04:13.373Z,21.83
2022-10-19T01:05:15.141Z,19.54
2022-10-19T01:06:17.056Z,18.92
2022-10-19T01:07:18.904Z,17.82
2022-10-19T01:08:20.708Z,19.68
2022-10-19T01:09:22.507Z,18.65
2022-10-19T01:10:24.299Z,20.35
2022-10-19T01:11:26.110Z,19.33
2022-10-19T01:12:27.961Z,19.58
2022-10-19T01:13:29.759Z,16.37
2022-10-19T01:14:31.570Z,20.75
2022-10-19T01:15:33.367Z,18.03
2022-10-19T01:16:35.175Z,20.13
2022-10-19T01:17:37.015Z,18.96
2022-10-19T01:18:38.904Z,15.76
2022-10-19T01:19:40.696Z,16.18
2022-10-19T01:20:42.606Z,18.40
2022-10-19T01:21:44.312Z,17.13
2022-10-19T01:22:46.156Z,19.13
2022-10-19T01:23:47.958Z,17.14
2022-10-19T01:24:49.821Z,16.69
2022-10-19T01:25:51.677Z,16.53
2022-10-19T01:26:53.585Z,14.05
2022-10-19T01:27:55.418Z,16.41
2022-10-19T01:28:57.314Z,16.96
2022-10-19T01:29:59.138Z,19.75
2022-10-19T01:31:01.350Z,17.12
2022-10-19T01:32:03.142Z,19.99
2022-10-19T01:33:04.995Z,19.61
2022-10-19T01:34:06.889Z,21.85
2022-10-19T01:35:08.692Z,18.52
2022-10-19T01:36:10.803Z,18.05
2022-10-19T01:37:12.614Z,21.42
2022-10-19T01:38:14.454Z,15.03
2022-10-19T01:39:16.249Z,17.13
2022-10-19T01:40:18.567Z,19.15
2022-10-19T01:41:20.351Z,16.50
2022-10-19T01:42:22.153Z,18.53
2022-10-19T01:43:24.003Z,16.04
2022-10-19T01:44:25.693Z,15.75
2022-10-19T01:45:27.507Z,17.77
2022-10-19T01:46:29.294Z,18.63
2022-10-19T01:47:31.195Z,18.24
2022-10-19T01:48:33.231Z,14.34
2022-10-19T01:49:35.150Z,18.25
2022-10-19T01:50:36.879Z,17.05
2022-10-19T01:51:38.674Z,15.97
2022-10-19T01:52:40.479Z,15.06
2022-10-19T01:53:42.327Z,15.73
2022-10-19T01:54:44.110Z,15.85
2022-10-19T01:55:45.810Z,17.94
2022-10-19T01:56:47.611Z,15.03
2022-10-19T01:57:49.413Z,14.84
2022-10-19T01:58:51.255Z,15.67
2022-10-19T01:59:53.078Z,14.38
2022-10-19T02:00:54.973Z,14.04
2022-10-19T02:01:56.877Z,14.35
2022-10-19T02:02:58.790Z,15.71
2022-10-19T02:04:00.623Z,16.91
2022-10-19T02:05:02.487Z,16.60
2022-10-19T02:06:04.382Z,15.85
2022-10-19T02:07:06.187Z,15.86
2022-10-19T02:08:07.881Z,17.03
2022-10-19T02:09:09.815Z,17.30
2022-10-19T02:10:12.229Z,18.74
2022-10-19T02:11:14.019Z,14.45
2022-10-19T02:12:15.972Z,19.08
2022-10-19T02:13:17.777Z,20.95
2022-10-19T02:14:19.650Z,25.84
2022-10-19T02:15:21.365Z,18.55
2022-10-19T02:16:23.157Z,18.75
2022-10-19T02:17:24.989Z,19.08
2022-10-19T02:18:26.899Z,19.42
2022-10-19T02:19:28.799Z,21.61
2022-10-19T02:20:30.899Z,22.91
2022-10-19T02:21:32.735Z,23.59
2022-10-19T02:22:34.657Z,22.84
2022-10-19T02:23:36.670Z,20.78
2022-10-19T02:24:38.554Z,19.17
2022-10-19T02:25:40.393Z,19.65
2022-10-19T02:26:42.217Z,20.87
2022-10-19T02:27:44.036Z,20.52
2022-10-19T02:28:45.862Z,20.10
2022-10-19T02:29:47.728Z,18.12
2022-10-19T02:30:49.551Z,17.54
2022-10-19T02:31:51.367Z,21.00
2022-10-19T02:32:53.186Z,21.32
2022-10-19T02:33:55.015Z,18.75
2022-10-19T02:34:56.883Z,20.65
2022-10-19T02:35:58.839Z,21.25
2022-10-19T02:37:00.654Z,29.77
2022-10-19T02:38:02.480Z,29.05
2022-10-19T02:39:04.311Z,37.00
2022-10-19T02:40:06.794Z,46.11
2022-10-19T02:41:08.633Z,42.84
2022-10-19T02:42:10.458Z,29.97
2022-10-19T02:43:12.275Z,27.88
2022-10-19T02:44:14.113Z,26.75
2022-10-19T02:45:15.973Z,30.13
2022-10-19T02:46:18.192Z,26.76
2022-10-19T02:47:20.038Z,27.70
2022-10-19T02:48:21.860Z,25.16
2022-10-19T02:49:23.673Z,27.52
2022-10-19T02:50:25.524Z,25.84
2022-10-19T02:51:27.444Z,24.55
2022-10-19T02:52:29.278Z,24.07
2022-10-19T02:53:31.100Z,25.51
2022-10-19T02:54:32.925Z,21.54
2022-10-19T02:55:34.840Z,24.00
2022-10-19T02:56:36.626Z,22.52
2022-10-19T02:57:38.653Z,23.29
2022-10-19T02:58:40.476Z,23.76
2022-10-19T02:59:42.383Z,23.45
2022-10-19T03:00:44.216Z,20.89
2022-10-19T03:01:46.026Z,22.05
2022-10-19T03:02:47.851Z,22.42
2022-10-19T03:03:49.689Z,21.75
2022-10-19T03:04:51.533Z,22.03
2022-10-19T03:05:53.382Z,22.66
2022-10-19T03:06:55.267Z,21.49
2022-10-19T03:07:57.113Z,23.13
2022-10-19T03:08:58.947Z,21.91
2022-10-19T03:10:00.799Z,24.74
2022-10-19T03:11:02.659Z,23.58
2022-10-19T03:12:04.485Z,23.21
2022-10-19T03:13:06.317Z,25.52
2022-10-19T03:14:08.144Z,37.46
2022-10-19T03:15:09.971Z,39.45
2022-10-19T03:16:11.850Z,35.19
2022-10-19T03:17:13.782Z,36.59
2022-10-19T03:18:15.601Z,32.13
2022-10-19T03:19:17.427Z,34.56
2022-10-19T03:20:19.554Z,47.95
2022-10-19T03:21:21.437Z,55.36
2022-10-19T03:22:23.290Z,52.15
2022-10-19T03:23:25.109Z,52.82
2022-10-19T03:24:26.948Z,46.87
2022-10-19T03:25:28.799Z,44.01
2022-10-19T03:26:30.719Z,42.85
2022-10-19T03:27:32.901Z,46.82
2022-10-19T03:28:35.026Z,43.95
2022-10-19T03:29:36.928Z,49.26
2022-10-19T03:30:38.868Z,45.85
2022-10-19T03:31:40.729Z,44.01
2022-10-19T03:32:42.552Z,41.29
2022-10-19T03:33:44.401Z,40.47
2022-10-19T03:34:46.245Z,39.84
2022-10-19T03:35:48.069Z,37.51
2022-10-19T03:36:49.933Z,33.09
2022-10-19T03:37:51.790Z,33.81
2022-10-19T03:38:53.644Z,35.36
2022-10-19T03:39:55.440Z,42.59
2022-10-19T03:40:57.258Z,39.09
2022-10-19T03:41:59.121Z,38.59
2022-10-19T03:43:00.963Z,38.31
2022-10-19T03:44:02.780Z,38.23
2022-10-19T03:45:04.613Z,39.07
2022-10-19T03:46:06.525Z,39.05
2022-10-19T03:47:08.406Z,33.51
2022-10-19T03:48:10.243Z,35.95
2022-10-19T03:49:12.062Z,35.79
2022-10-19T03:50:14.413Z,38.33
2022-10-19T03:51:16.237Z,36.66
2022-10-19T03:52:18.138Z,30.35
2022-10-19T03:53:20.064Z,30.72
2022-10-19T03:54:24.973Z,29.22
2022-10-19T03:55:25.555Z,26.09
2022-10-19T03:56:27.367Z,21.47
2022-10-19T03:57:29.230Z,25.23
2022-10-19T03:58:31.063Z,22.73
2022-10-19T03:59:32.900Z,23.99
2022-10-19T04:00:34.729Z,22.89
2022-10-19T04:01:36.565Z,20.57
2022-10-19T04:02:38.432Z,20.99
2022-10-19T04:03:40.322Z,19.91
2022-10-19T04:04:42.077Z,20.55
2022-10-19T04:05:43.902Z,24.47
2022-10-19T04:06:45.725Z,23.11
2022-10-19T04:07:47.624Z,19.85
2022-10-19T04:08:49.542Z,17.86
2022-10-19T04:09:51.373Z,18.49
2022-10-19T04:10:53.203Z,17.53
2022-10-19T04:11:55.048Z,18.33
2022-10-19T04:12:56.938Z,20.72
2022-10-19T04:13:58.822Z,20.67
2022-10-19T04:15:00.707Z,21.60
2022-10-19T04:16:02.552Z,20.35
2022-10-19T04:17:04.395Z,22.60
2022-10-19T04:18:06.257Z,22.39
2022-10-19T04:19:08.090Z,17.01
2022-10-19T04:20:10.532Z,18.37
2022-10-19T04:21:12.379Z,20.46
2022-10-19T04:22:14.222Z,17.40
2022-10-19T04:24:18.971Z,25.66
2022-10-19T04:25:20.802Z,33.95
2022-10-19T04:26:22.727Z,30.64
2022-10-19T04:27:24.552Z,30.82
2022-10-19T04:28:26.497Z,27.14
2022-10-19T04:29:30.167Z,26.46
2022-10-19T04:30:31.894Z,26.29
2022-10-19T04:31:33.706Z,23.29
2022-10-19T04:32:35.502Z,26.36
2022-10-19T04:33:37.388Z,24.51
2022-10-19T04:34:40.137Z,22.91
2022-10-19T04:35:42.167Z,23.47
2022-10-19T04:36:43.963Z,22.27
2022-10-19T04:37:45.659Z,20.31
2022-10-19T04:38:47.530Z,19.52
2022-10-19T04:39:49.429Z,24.50
2022-10-19T04:40:51.213Z,20.66
2022-10-19T04:41:53.023Z,23.32
2022-10-19T04:42:54.857Z,24.05
2022-10-19T04:43:56.707Z,22.85
2022-10-19T04:44:58.521Z,25.36
2022-10-19T04:46:00.339Z,24.67
2022-10-19T04:47:02.110Z,24.69
2022-10-19T04:48:03.920Z,24.04
2022-10-19T04:49:05.766Z,23.74
2022-10-19T04:50:07.795Z,25.53
2022-10-19T04:51:09.595Z,21.82
2022-10-19T04:52:11.395Z,21.47
2022-10-19T04:53:13.264Z,22.71
2022-10-19T04:54:15.067Z,25.54
2022-10-19T04:55:16.949Z,22.48
2022-10-19T04:56:19.774Z,26.46
2022-10-19T04:57:21.489Z,16.38
2022-10-19T04:58:23.295Z,22.52
2022-10-19T04:59:25.025Z,20.86
2022-10-19T05:00:26.719Z,22.86
2022-10-19T05:01:28.521Z,20.04
2022-10-19T05:02:30.310Z,19.06
2022-10-19T05:03:32.173Z,22.85
2022-10-19T05:04:34.002Z,17.52
2022-10-19T05:05:35.801Z,16.96
2022-10-19T05:06:37.596Z,17.64
2022-10-19T05:07:39.396Z,16.43
2022-10-19T05:08:41.235Z,16.44
2022-10-19T05:09:43.050Z,19.51
2022-10-19T05:10:47.608Z,22.19
2022-10-19T05:11:48.611Z,22.09
2022-10-19T05:12:50.405Z,21.46
2022-10-19T05:13:52.217Z,20.48
2022-10-19T05:14:54.069Z,17.85
2022-10-19T05:15:55.866Z,20.12
2022-10-19T05:16:58.379Z,19.68
2022-10-19T05:18:00.185Z,21.15
2022-10-19T05:19:02.007Z,19.32
2022-10-19T05:20:05.271Z,17.57
2022-10-19T05:21:07.064Z,17.84
2022-10-19T05:22:08.863Z,15.60
2022-10-19T05:23:10.664Z,17.99
2022-10-19T05:24:12.469Z,18.49
2022-10-19T05:25:14.323Z,14.00
2022-10-19T05:26:16.303Z,14.86
2022-10-19T05:27:18.226Z,16.89
2022-10-19T05:28:20.034Z,15.37
2022-10-19T05:29:21.825Z,13.57
2022-10-19T05:30:23.681Z,17.33
2022-10-19T05:31:25.484Z,14.76
2022-10-19T05:32:27.280Z,14.44
2022-10-19T05:33:29.090Z,12.49
2022-10-19T05:34:30.880Z,10.73
2022-10-19T05:35:32.728Z,13.43
2022-10-19T05:36:34.791Z,13.49
2022-10-19T05:37:37.017Z,13.46
2022-10-19T05:38:39.061Z,12.26
2022-10-19T05:39:40.894Z,11.73
2022-10-19T05:40:42.757Z,14.93
2022-10-19T05:41:44.654Z,12.41
2022-10-19T05:42:46.355Z,13.76
2022-10-19T05:43:48.149Z,12.31
2022-10-19T05:44:49.941Z,12.01
2022-10-19T05:45:51.789Z,11.49
2022-10-19T05:46:53.597Z,14.24
2022-10-19T05:47:55.390Z,13.96
2022-10-19T05:48:57.190Z,12.30
2022-10-19T05:49:58.891Z,12.31
2022-10-19T05:51:00.758Z,14.75
2022-10-19T05:52:02.575Z,14.09
2022-10-19T05:53:04.363Z,13.95
2022-10-19T05:54:06.178Z,14.66
2022-10-19T05:55:07.975Z,15.11
2022-10-19T05:56:10.529Z,17.48
2022-10-19T05:57:12.485Z,18.80
2022-10-19T05:58:14.288Z,17.41
2022-10-19T05:59:16.095Z,19.63
2022-10-19T06:00:18.302Z,16.67
2022-10-19T06:01:20.206Z,17.04
2022-10-19T06:02:22.005Z,15.82
2022-10-19T06:03:23.806Z,14.94
2022-10-19T06:04:25.610Z,13.91
2022-10-19T06:05:27.441Z,17.61
2022-10-19T06:06:29.656Z,13.81
2022-10-19T06:07:31.573Z,18.71
2022-10-19T06:08:33.616Z,11.99
2022-10-19T06:09:35.423Z,15.15
2022-10-19T06:10:37.341Z,14.88
2022-10-19T06:11:39.253Z,15.77
2022-10-19T06:12:41.142Z,17.37
2022-10-19T06:13:42.951Z,17.61
2022-10-19T06:14:47.759Z,15.80
2022-10-19T06:15:48.388Z,16.06
2022-10-19T06:16:50.270Z,16.72
2022-10-19T06:17:52.077Z,16.29
2022-10-19T06:18:53.882Z,11.08
2022-10-19T06:19:55.695Z,12.63
2022-10-19T06:20:57.511Z,13.49
2022-10-19T06:21:59.376Z,12.21
2022-10-19T06:23:01.176Z,12.75
2022-10-19T06:24:02.891Z,13.04
2022-10-19T06:25:04.699Z,12.33
2022-10-19T06:26:06.821Z,11.27
2022-10-19T06:27:08.741Z,11.98
2022-10-19T06:28:10.803Z,14.47
2022-10-19T06:29:12.608Z,18.28
2022-10-19T06:30:14.705Z,15.67
2022-10-19T06:31:16.465Z,15.42
2022-10-19T06:32:18.303Z,13.95
2022-10-19T06:33:20.135Z,13.56
2022-10-19T06:34:21.982Z,12.02
2022-10-19T06:35:23.779Z,12.66
2022-10-19T06:36:25.599Z,12.08
2022-10-19T06:37:27.443Z,14.16
2022-10-19T06:38:29.254Z,13.82
2022-10-19T06:39:31.049Z,11.23
2022-10-19T06:40:32.936Z,15.23
2022-10-19T06:41:34.712Z,11.31
2022-10-19T06:42:36.578Z,10.06
2022-10-19T06:43:38.488Z,12.99
2022-10-19T06:44:40.323Z,10.11
2022-10-19T06:45:42.203Z,12.73
2022-10-19T06:46:44.118Z,12.71
2022-10-19T06:48:47.789Z,10.85
2022-10-19T06:49:49.610Z,11.89
2022-10-19T06:50:51.467Z,11.31
2022-10-19T06:51:53.354Z,9.48
2022-10-19T06:52:55.231Z,11.17
2022-10-19T06:53:57.603Z,12.21
2022-10-19T06:54:59.645Z,10.05
2022-10-19T06:56:01.492Z,11.56
2022-10-19T06:57:03.326Z,13.00
2022-10-19T06:58:05.203Z,11.62
2022-10-19T06:59:09.286Z,10.67
2022-10-19T07:00:11.961Z,11.47
2022-10-19T07:01:13.864Z,11.32
2022-10-19T07:02:15.746Z,12.25
2022-10-19T07:03:17.639Z,9.27
2022-10-19T07:04:19.466Z,11.74
2022-10-19T07:05:21.295Z,13.23
2022-10-19T07:06:23.231Z,11.11
2022-10-19T07:07:25.086Z,15.99
2022-10-19T07:08:26.974Z,14.47
2022-10-19T07:09:28.798Z,12.75
2022-10-19T07:10:30.604Z,9.86
2022-10-19T07:11:32.453Z,11.69
2022-10-19T07:12:34.314Z,12.12
2022-10-19T07:13:36.189Z,10.77
2022-10-19T07:14:38.383Z,10.56
2022-10-19T07:15:40.216Z,10.96
2022-10-19T07:16:42.064Z,10.69
2022-10-19T07:17:43.901Z,10.80
2022-10-19T07:18:45.786Z,10.48
2022-10-19T07:19:47.610Z,9.54
2022-10-19T07:20:49.438Z,10.57
2022-10-19T07:21:51.293Z,10.65
2022-10-19T07:22:53.114Z,9.05
2022-10-19T07:23:55.077Z,12.11
2022-10-19T07:24:56.917Z,11.26
2022-10-19T07:25:58.752Z,13.72
2022-10-19T07:27:00.577Z,10.71
2022-10-19T07:28:02.401Z,9.17
2022-10-19T07:29:04.278Z,10.06
2022-10-19T07:30:06.448Z,9.35
2022-10-19T07:31:08.286Z,11.21
2022-10-19T07:32:10.117Z,10.14
2022-10-19T07:33:11.987Z,12.14
2022-10-19T07:34:13.879Z,9.57
2022-10-19T07:35:15.706Z,8.38
2022-10-19T07:36:18.546Z,10.63
2022-10-19T07:37:20.382Z,8.96
2022-10-19T07:38:22.224Z,9.24
2022-10-19T07:39:24.131Z,11.66
2022-10-19T07:40:25.958Z,7.72
2022-10-19T07:41:27.794Z,10.53
2022-10-19T07:42:29.636Z,9.49
2022-10-19T07:43:31.593Z,10.95
2022-10-19T07:44:35.282Z,9.27
2022-10-19T07:45:37.657Z,13.11
2022-10-19T07:46:39.484Z,9.35
2022-10-19T07:47:41.329Z,10.83
2022-10-19T07:48:43.183Z,12.24
2022-10-19T07:49:45.065Z,11.33
2022-10-19T07:50:47.005Z,12.12
2022-10-19T07:51:48.832Z,9.26
2022-10-19T07:52:50.657Z,11.09
2022-10-19T07:53:52.512Z,9.65
2022-10-19T07:54:54.396Z,11.27
2022-10-19T07:55:56.246Z,10.24
2022-10-19T07:56:58.079Z,9.37
2022-10-19T07:57:59.923Z,10.09
2022-10-19T07:59:01.764Z,8.77
2022-10-19T08:00:03.661Z,11.32
2022-10-19T08:01:05.595Z,9.68
2022-10-19T08:02:07.467Z,10.27
2022-10-19T08:03:57.156Z,11.58
2022-10-19T08:04:49.037Z,8.74
2022-10-19T08:05:17.356Z,11.22
2022-10-19T08:06:21.003Z,12.90
2022-10-19T08:07:22.840Z,12.06
2022-10-19T08:08:24.703Z,11.28
2022-10-19T08:10:30.193Z,11.24
2022-10-19T08:11:32.022Z,14.07
2022-10-19T08:12:34.096Z,10.19
2022-10-19T08:13:36.092Z,11.09
2022-10-19T08:14:37.947Z,10.88
2022-10-19T08:15:39.833Z,13.21
2022-10-19T08:16:41.867Z,9.42
2022-10-19T08:17:43.716Z,11.48
2022-10-19T08:18:45.575Z,12.56
2022-10-19T08:19:47.405Z,10.77
2022-10-19T08:20:49.710Z,8.84
2022-10-19T08:21:51.530Z,11.87
2022-10-19T08:22:56.464Z,10.38
2022-10-19T08:23:57.002Z,8.44
2022-10-19T08:24:58.855Z,11.46
2022-10-19T08:26:00.736Z,11.66
2022-10-19T08:27:02.577Z,13.03
2022-10-19T08:28:04.437Z,18.95
2022-10-19T08:29:06.257Z,20.23
2022-10-19T08:30:08.811Z,13.06
2022-10-19T08:31:10.720Z,14.70
2022-10-19T08:32:14.266Z,12.43
2022-10-19T08:33:16.079Z,11.57
2022-10-19T08:34:17.907Z,15.16
2022-10-19T08:35:19.754Z,13.11
2022-10-19T08:36:21.752Z,13.04
2022-10-19T08:37:40.138Z,13.82
2022-10-19T08:38:27.232Z,13.09
2022-10-19T08:39:29.058Z,11.56
2022-10-19T08:40:30.954Z,18.35
2022-10-19T08:41:32.877Z,10.37
2022-10-19T08:42:34.921Z,12.18
2022-10-19T08:43:37.038Z,9.98
2022-10-19T08:44:38.874Z,10.98
2022-10-19T08:46:43.627Z,11.89
2022-10-19T08:47:46.993Z,13.55
2022-10-19T08:48:48.824Z,11.73
2022-10-19T08:49:50.657Z,12.62
2022-10-19T08:50:52.523Z,11.77
2022-10-19T08:51:54.435Z,11.79
2022-10-19T08:52:56.270Z,11.14
2022-10-19T08:53:58.092Z,10.41
2022-10-19T08:54:59.881Z,11.94
2022-10-19T08:56:03.778Z,9.41
2022-10-19T08:57:05.392Z,13.40
2022-10-19T08:58:07.189Z,12.19
2022-10-19T08:59:08.991Z,10.89
2022-10-19T09:00:11.632Z,13.16
2022-10-19T09:01:13.440Z,9.99
2022-10-19T09:02:15.333Z,9.45
2022-10-19T09:03:23.070Z,10.21
2022-10-19T09:04:20.930Z,8.02
2022-10-19T09:05:22.735Z,8.66
2022-10-19T09:06:24.537Z,8.81
2022-10-19T09:07:26.415Z,7.55
2022-10-19T09:08:28.279Z,8.72
2022-10-19T09:09:30.045Z,8.37
2022-10-19T09:10:31.847Z,23.17
2022-10-19T09:11:33.651Z,17.73
2022-10-19T09:12:35.738Z,14.68
2022-10-19T09:13:41.691Z,12.80
2022-10-19T09:14:41.488Z,9.06
2022-10-19T09:15:43.285Z,8.37
2022-10-19T09:16:44.990Z,7.44
2022-10-19T09:17:46.864Z,10.17
2022-10-19T09:18:48.956Z,6.89
2022-10-19T09:19:50.776Z,8.72
2022-10-19T09:20:52.673Z,6.55
2022-10-19T09:21:54.524Z,10.05
2022-10-19T09:22:56.393Z,11.43
2022-10-19T09:23:58.252Z,10.46
2022-10-19T09:25:00.052Z,8.79
2022-10-19T09:26:01.856Z,11.15
2022-10-19T09:27:03.716Z,6.84
2022-10-19T09:28:05.587Z,8.57
2022-10-19T09:29:07.401Z,10.46
2022-10-19T09:30:09.521Z,8.93
2022-10-19T09:31:11.315Z,6.52
2022-10-19T09:32:13.131Z,6.71
2022-10-19T09:33:15.482Z,8.39
2022-10-19T09:34:17.809Z,8.95
2022-10-19T09:35:19.615Z,9.71
2022-10-19T09:36:22.824Z,8.74
2022-10-19T09:37:26.772Z,5.67
2022-10-19T09:38:28.990Z,6.52
2022-10-19T09:39:30.793Z,7.99
2022-10-19T09:40:32.613Z,9.58
2022-10-19T09:41:34.431Z,7.93
2022-10-19T09:42:36.466Z,6.12
2022-10-19T09:43:38.806Z,7.60
2022-10-19T09:44:40.638Z,10.30
2022-10-19T09:45:43.427Z,16.80
2022-10-19T09:47:46.999Z,25.29
2022-10-19T09:48:48.859Z,9.57
2022-10-19T09:49:51.195Z,10.52
2022-10-19T09:50:52.974Z,8.18
2022-10-19T09:51:54.771Z,10.14
2022-10-19T09:52:56.582Z,6.98
2022-10-19T09:53:58.461Z,9.70
2022-10-19T09:55:00.220Z,11.04
2022-10-19T09:56:02.006Z,12.81
2022-10-19T09:57:03.798Z,9.26
2022-10-19T09:58:05.606Z,8.45
2022-10-19T09:59:07.706Z,9.87
2022-10-19T10:00:10.022Z,7.37
2022-10-19T10:01:11.831Z,7.29
2022-10-19T10:02:13.640Z,6.92
2022-10-19T10:03:15.438Z,7.87
2022-10-19T10:04:17.296Z,9.57
2022-10-19T10:05:20.084Z,7.26
2022-10-19T10:06:21.993Z,5.84
2022-10-19T10:07:23.812Z,8.93
2022-10-19T10:08:25.751Z,10.37
2022-10-19T10:09:27.816Z,10.26
2022-10-19T10:10:30.569Z,8.33
2022-10-19T10:11:32.542Z,7.64
2022-10-19T10:12:34.563Z,11.07
2022-10-19T10:13:36.587Z,13.02
2022-10-19T10:14:38.372Z,10.13
2022-10-19T10:15:40.194Z,10.04
2022-10-19T10:16:42.003Z,11.56
2022-10-19T10:17:43.793Z,11.39
2022-10-19T10:18:45.587Z,9.59
2022-10-19T10:19:47.448Z,9.71
2022-10-19T10:20:51.151Z,12.57
2022-10-19T10:21:53.023Z,10.56
2022-10-19T10:22:54.810Z,12.65
2022-10-19T10:23:56.636Z,10.17
2022-10-19T10:24:58.536Z,9.05
2022-10-19T10:26:00.325Z,7.32
2022-10-19T10:27:02.129Z,8.76
2022-10-19T10:28:03.913Z,8.39
2022-10-19T10:29:05.620Z,10.47
2022-10-19T10:30:08.187Z,8.34
2022-10-19T10:31:10.170Z,6.59
2022-10-19T10:32:11.986Z,7.26
2022-10-19T10:33:26.906Z,19.97
2022-10-19T10:34:36.412Z,9.99
2022-10-19T10:35:21.103Z,10.03
2022-10-19T10:36:23.387Z,8.64
2022-10-19T10:37:25.194Z,8.99
2022-10-19T10:38:26.979Z,14.27
2022-10-19T10:39:28.800Z,8.67
2022-10-19T10:40:30.662Z,8.19
2022-10-19T10:41:32.461Z,21.24
2022-10-19T10:42:34.622Z,13.71
2022-10-19T10:43:36.664Z,8.85
2022-10-19T10:44:38.461Z,8.28
2022-10-19T10:45:40.317Z,15.67
2022-10-19T10:46:42.217Z,19.02
2022-10-19T10:47:44.013Z,7.51
2022-10-19T10:48:47.663Z,9.69
2022-10-19T10:49:49.469Z,9.01
2022-10-19T10:50:51.318Z,8.37
2022-10-19T10:51:53.294Z,6.49
2022-10-19T10:52:55.116Z,6.71
2022-10-19T10:53:56.925Z,7.77
2022-10-19T10:54:58.768Z,7.52
2022-10-19T10:56:00.657Z,5.53
2022-10-19T10:57:04.430Z,8.76
2022-10-19T10:58:06.073Z,6.43
2022-10-19T10:59:08.000Z,7.32
2022-10-19T11:00:10.484Z,5.90
2022-10-19T11:01:12.344Z,10.43
2022-10-19T11:02:14.290Z,7.85
2022-10-19T11:03:16.264Z,8.31
2022-10-19T11:04:18.061Z,5.63
2022-10-19T11:05:19.867Z,7.70
2022-10-19T11:06:21.931Z,7.67
2022-10-19T11:07:23.840Z,5.93
2022-10-19T11:08:25.730Z,6.14
2022-10-19T11:09:27.605Z,10.90
2022-10-19T11:10:29.449Z,8.84
2022-10-19T11:11:31.322Z,8.65
2022-10-19T11:12:35.118Z,5.91
2022-10-19T11:13:36.803Z,5.44
2022-10-19T11:14:38.650Z,8.29
2022-10-19T11:15:40.473Z,9.09
2022-10-19T11:16:42.362Z,5.71
2022-10-19T11:17:44.186Z,9.59
2022-10-19T11:18:46.033Z,10.75
2022-10-19T11:19:47.893Z,13.87
2022-10-19T11:20:49.831Z,5.17
2022-10-19T11:21:51.737Z,5.14
2022-10-19T11:22:53.781Z,7.06
2022-10-19T11:23:55.598Z,8.31
2022-10-19T11:24:57.444Z,5.16
2022-10-19T11:25:59.303Z,5.81
2022-10-19T11:27:01.183Z,5.24
2022-10-19T11:28:03.030Z,4.65
2022-10-19T11:29:04.877Z,5.36
2022-10-19T11:30:07.220Z,5.79
2022-10-19T11:31:09.074Z,7.91
2022-10-19T11:32:10.983Z,7.39
2022-10-19T11:33:12.813Z,5.79
2022-10-19T11:34:16.159Z,4.99
2022-10-19T11:35:18.209Z,6.08
2022-10-19T11:36:20.151Z,5.52
2022-10-19T11:37:22.027Z,8.51
2022-10-19T11:38:27.551Z,8.01
2022-10-19T11:39:27.661Z,5.94
2022-10-19T11:40:29.547Z,5.75
2022-10-19T11:41:31.412Z,7.42
2022-10-19T11:42:33.304Z,6.75
2022-10-19T11:43:35.154Z,9.20
2022-10-19T11:44:36.990Z,8.79
2022-10-19T11:45:38.809Z,4.90
2022-10-19T11:46:40.634Z,6.23
2022-10-19T11:47:42.537Z,4.97
2022-10-19T11:48:44.396Z,6.67
2022-10-19T11:49:46.208Z,8.94
2022-10-19T11:50:53.941Z,8.59
2022-10-19T11:51:51.684Z,8.83
2022-10-19T11:52:53.567Z,7.68
2022-10-19T11:53:55.482Z,6.93
2022-10-19T11:54:57.298Z,11.57
2022-10-19T11:55:59.125Z,17.77
2022-10-19T11:57:04.706Z,13.31
2022-10-19T11:58:04.760Z,6.58
2022-10-19T11:59:06.633Z,4.35
2022-10-19T12:00:15.103Z,6.21
2022-10-19T12:01:12.430Z,6.89
2022-10-19T12:02:14.310Z,5.86
2022-10-19T12:03:17.987Z,6.23
2022-10-19T12:04:19.867Z,6.43
2022-10-19T12:05:21.716Z,5.95
2022-10-19T12:06:23.541Z,6.36
2022-10-19T12:07:25.397Z,3.59
2022-10-19T12:08:28.920Z,5.19
2022-10-19T12:09:30.927Z,5.12
2022-10-19T12:10:32.756Z,6.40
2022-10-19T12:11:34.581Z,6.69
2022-10-19T12:12:36.683Z,7.31
2022-10-19T12:13:38.945Z,7.89
2022-10-19T12:14:40.771Z,8.39
2022-10-19T12:15:42.609Z,5.60
2022-10-19T12:16:44.457Z,6.74
2022-10-19T12:17:46.284Z,5.03
2022-10-19T12:18:49.714Z,4.10
2022-10-19T12:19:51.591Z,11.14
2022-10-19T12:20:53.515Z,7.47
2022-10-19T12:21:55.346Z,6.05
2022-10-19T12:22:57.224Z,5.16
2022-10-19T12:23:59.101Z,7.83
2022-10-19T12:25:01.049Z,6.12
2022-10-19T12:26:02.897Z,6.71
2022-10-19T12:27:04.755Z,8.14
2022-10-19T12:28:06.585Z,10.95
2022-10-19T12:29:08.475Z,9.49
2022-10-19T12:30:10.641Z,8.13
2022-10-19T12:31:12.496Z,8.74
2022-10-19T12:32:14.326Z,7.00
2022-10-19T12:33:16.161Z,8.59
2022-10-19T12:34:18.061Z,9.31
2022-10-19T12:36:21.644Z,7.44
2022-10-19T12:37:23.493Z,6.47
2022-10-19T12:38:25.361Z,7.24
2022-10-19T12:39:27.292Z,9.63
2022-10-19T12:40:29.274Z,7.91
2022-10-19T12:41:31.132Z,8.77
2022-10-19T12:42:35.866Z,7.74
2022-10-19T12:43:37.743Z,13.25
2022-10-19T12:44:39.624Z,9.92
2022-10-19T12:45:41.468Z,8.74
2022-10-19T12:46:44.020Z,11.11
2022-10-19T12:47:46.441Z,14.84
2022-10-19T12:48:48.290Z,12.87
2022-10-19T12:49:50.173Z,10.68
2022-10-19T12:50:51.995Z,9.25
2022-10-19T12:51:53.810Z,9.20
2022-10-19T12:52:55.637Z,8.03
2022-10-19T12:53:57.497Z,10.06
2022-10-19T12:54:59.382Z,8.64
2022-10-19T12:56:01.245Z,12.03
2022-10-19T12:57:03.102Z,9.71
2022-10-19T12:58:04.975Z,9.41
2022-10-19T12:59:06.785Z,8.41
2022-10-19T13:00:09.519Z,6.69
2022-10-19T13:01:11.418Z,8.19
2022-10-19T13:02:13.203Z,9.63
2022-10-19T13:03:15.060Z,7.60
2022-10-19T13:04:16.885Z,7.66
2022-10-19T13:05:18.769Z,8.27
2022-10-19T13:06:20.626Z,9.55
2022-10-19T13:07:22.509Z,9.76
2022-10-19T13:08:24.324Z,8.94
2022-10-19T13:09:26.119Z,7.87
2022-10-19T13:10:28.084Z,8.57
2022-10-19T13:11:30.115Z,8.55
2022-10-19T13:12:31.903Z,9.95
2022-10-19T13:13:33.752Z,10.21
2022-10-19T13:14:35.618Z,13.72
2022-10-19T13:15:37.583Z,11.51
2022-10-19T13:16:39.402Z,14.56
2022-10-19T13:17:41.241Z,11.81
2022-10-19T13:18:43.083Z,10.25
2022-10-19T13:19:45.088Z,11.16
2022-10-19T13:20:47.063Z,10.64
2022-10-19T13:21:48.884Z,12.54
2022-10-19T13:22:50.682Z,13.44
2022-10-19T13:23:52.505Z,9.45
2022-10-19T13:24:54.315Z,7.85
2022-10-19T13:25:56.203Z,9.86
2022-10-19T13:26:58.164Z,7.95
2022-10-19T13:27:59.971Z,7.61
2022-10-19T13:29:01.773Z,12.39
2022-10-19T13:30:03.619Z,13.09
2022-10-19T13:31:07.034Z,8.41
2022-10-19T13:32:09.127Z,12.67
2022-10-19T13:33:11.035Z,10.71